Thursday, August 16, 2018, 9:58 AM EDT
Back to Local

KBDL, Bradley International Airport

Location: Windsor Locks, CT, United States Lat: 41.933
Local Time: 9:58 AM EDT (13:58 GMT) Lon: -72.683
Time Zone: US/Eastern Elev: 173 ft

Show me the last for .
Show Decoded

2018-08-16 08:51 METAR KBDL 161251Z 28006KT 9SM CLR 27/21 A3003 RMK AO2 SLP166 T02670206 =
2018-08-16 07:51 METAR KBDL 161151Z 31003KT 8SM CLR 24/20 A3001 RMK AO2 SLP162 T02440200 10244
                 20211 51015 =
2018-08-16 06:51 METAR KBDL 161051Z 00000KT 8SM FEW250 22/20 A3000 RMK AO2 SLP158 T02220200 =
2018-08-16 05:51 METAR KBDL 160951Z 00000KT 8SM FEW250 22/19 A2999 RMK AO2 SLP154 T02170194 =
2018-08-16 04:51 METAR KBDL 160851Z 20003KT 10SM FEW250 22/20 A2997 RMK AO2 SLP146 T02220200
                 53004 =
2018-08-16 03:51 METAR KBDL 160751Z 22004KT 10SM SCT250 22/20 A2996 RMK AO2 SLP144 T02220200 =
2018-08-16 02:51 METAR KBDL 160651Z 24006KT 10SM FEW250 22/20 A2996 RMK AO2 SLP142 T02220200 =
2018-08-16 01:51 METAR KBDL 160551Z 22005KT 10SM SCT250 23/21 A2995 RMK AO2 SLP142 T02280206
                 10267 20222 53006 =
2018-08-16 00:51 METAR KBDL 160451Z 00000KT 10SM SCT250 23/21 A2995 RMK AO2 SLP141 T02280206
                 403170194 =
2018-08-15 23:51 METAR KBDL 160351Z 19004KT 10SM BKN250 24/21 A2993 RMK AO2 SLP135 T02390206 =
2018-08-15 22:51 METAR KBDL 160251Z 19005KT 10SM FEW010 FEW250 24/21 A2994 RMK AO2 SLP136
                 T02390211 51012 =
2018-08-15 21:51 METAR KBDL 160151Z 23006KT 10SM CLR 25/21 A2993 RMK AO2 SLP134 T02500211 =
2018-08-15 20:51 METAR KBDL 160051Z 24006KT 10SM FEW250 26/21 A2992 RMK AO2 SLP130 T02560211 =
2018-08-15 19:51 METAR KBDL 152351Z 23005KT 10SM FEW180 FEW220 SCT250 27/21 A2990 RMK AO2 SLP123
                 T02670206 10317 20267 53012 =
2018-08-15 18:51 METAR KBDL 152251Z 27005KT 10SM BKN200 BKN220 BKN250 28/19 A2988 RMK AO2 SLP115
                 T02830194 =
2018-08-15 17:51 METAR KBDL 152151Z 28008KT 10SM FEW046 FEW200 BKN220 BKN250 30/18 A2987 RMK AO2
                 SLP112 T03000183 =
2018-08-15 16:51 METAR KBDL 152051Z 30009KT 10SM FEW048 FEW065 FEW250 31/19 A2986 RMK AO2 SLP112
                 T03110189 55000 =
2018-08-15 15:51 METAR KBDL 151951Z 29011KT 10SM FEW055 FEW070 FEW250 32/19 A2986 RMK AO2 SLP111
                 T03170189 =
2018-08-15 14:51 METAR KBDL 151851Z 34005KT 10SM SCT043 BKN050 BKN250 30/20 A2986 RMK AO2 SLP111
                 T03000200 =
2018-08-15 13:51 METAR KBDL 151751Z VRB05KT 10SM BKN048 30/19 A2987 RMK AO2 SLP112 T03000194
                 10306 20222 58001 =
2018-08-15 12:51 METAR KBDL 151651Z 33007KT 10SM FEW040 FEW250 29/19 A2987 RMK AO2 SLP113
                 T02940194 =
2018-08-15 11:51 METAR KBDL 151551Z 25003KT 10SM FEW028 BKN034 BKN250 28/20 A2987 RMK AO2 SLP114
                 T02780200 =
2018-08-15 10:51 METAR KBDL 151451Z 33009KT 10SM SCT026 BKN035 BKN250 27/19 A2987 RMK AO2 SLP113
                 T02670194 51005 =
2018-08-15 10:30 METAR KBDL 151430Z 28006KT 10SM FEW025 SCT035 SCT042 26/20 A2988 RMK AO2
                 T02560200 =

Support USWX by starting your Amazon purchase here.